sensor_id;sensor_type;location;lat;lon;timestamp;P1;durP1;ratioP1;P2;durP2;ratioP2
59922;SDS011;45778;51.142;3.732;2022-10-26T00:01:25;7.47;;;4.10;;
59922;SDS011;45778;51.142;3.732;2022-10-26T00:03:53;12.32;;;4.03;;
59922;SDS011;45778;51.142;3.732;2022-10-26T00:06:20;9.95;;;3.95;;
59922;SDS011;45778;51.142;3.732;2022-10-26T00:08:49;6.55;;;3.17;;
59922;SDS011;45778;51.142;3.732;2022-10-26T00:11:15;10.25;;;3.88;;
59922;SDS011;45778;51.142;3.732;2022-10-26T00:13:42;8.48;;;3.60;;
59922;SDS011;45778;51.142;3.732;2022-10-26T00:16:09;9.68;;;4.20;;
59922;SDS011;45778;51.142;3.732;2022-10-26T00:18:40;9.35;;;3.70;;
59922;SDS011;45778;51.142;3.732;2022-10-26T00:21:07;7.25;;;3.40;;
59922;SDS011;45778;51.142;3.732;2022-10-26T00:23:34;8.43;;;3.78;;
59922;SDS011;45778;51.142;3.732;2022-10-26T00:26:00;7.47;;;3.53;;
59922;SDS011;45778;51.142;3.732;2022-10-26T00:28:26;10.10;;;3.70;;
59922;SDS011;45778;51.142;3.732;2022-10-26T00:30:52;9.65;;;3.25;;
59922;SDS011;45778;51.142;3.732;2022-10-26T00:33:17;7.05;;;3.70;;
59922;SDS011;45778;51.142;3.732;2022-10-26T00:35:46;9.60;;;3.45;;
59922;SDS011;45778;51.142;3.732;2022-10-26T00:38:13;9.38;;;4.03;;
59922;SDS011;45778;51.142;3.732;2022-10-26T00:40:39;6.85;;;3.08;;
59922;SDS011;45778;51.142;3.732;2022-10-26T00:43:14;8.55;;;3.28;;
59922;SDS011;45778;51.142;3.732;2022-10-26T00:46:00;9.15;;;3.40;;
59922;SDS011;45778;51.142;3.732;2022-10-26T00:48:36;9.25;;;3.33;;
59922;SDS011;45778;51.142;3.732;2022-10-26T00:51:18;8.07;;;3.25;;
59922;SDS011;45778;51.142;3.732;2022-10-26T00:53:48;6.32;;;3.55;;
59922;SDS011;45778;51.142;3.732;2022-10-26T00:56:15;7.93;;;3.70;;
59922;SDS011;45778;51.142;3.732;2022-10-26T00:58:41;8.63;;;3.00;;
59922;SDS011;45778;51.142;3.732;2022-10-26T01:01:08;7.93;;;3.88;;
59922;SDS011;45778;51.142;3.732;2022-10-26T01:03:33;7.65;;;3.22;;
59922;SDS011;45778;51.142;3.732;2022-10-26T01:06:00;6.18;;;3.50;;
59922;SDS011;45778;51.142;3.732;2022-10-26T01:08:27;12.35;;;4.28;;
59922;SDS011;45778;51.142;3.732;2022-10-26T01:10:54;7.95;;;3.40;;
59922;SDS011;45778;51.142;3.732;2022-10-26T01:13:22;7.05;;;3.17;;
59922;SDS011;45778;51.142;3.732;2022-10-26T01:18:29;6.30;;;3.25;;
59922;SDS011;45778;51.142;3.732;2022-10-26T01:26:11;7.57;;;2.95;;
59922;SDS011;45778;51.142;3.732;2022-10-26T01:32:09;9.68;;;3.22;;
59922;SDS011;45778;51.142;3.732;2022-10-26T01:34:45;8.73;;;3.33;;
59922;SDS011;45778;51.142;3.732;2022-10-26T01:37:21;11.05;;;3.47;;
59922;SDS011;45778;51.142;3.732;2022-10-26T01:39:54;13.00;;;3.25;;
59922;SDS011;45778;51.142;3.732;2022-10-26T01:42:26;8.48;;;3.20;;
59922;SDS011;45778;51.142;3.732;2022-10-26T01:44:59;5.20;;;2.67;;
59922;SDS011;45778;51.142;3.732;2022-10-26T01:47:29;7.53;;;2.33;;
59922;SDS011;45778;51.142;3.732;2022-10-26T01:49:57;8.30;;;2.85;;
59922;SDS011;45778;51.142;3.732;2022-10-26T01:52:25;7.72;;;3.03;;
59922;SDS011;45778;51.142;3.732;2022-10-26T01:54:58;8.13;;;3.50;;
59922;SDS011;45778;51.142;3.732;2022-10-26T01:57:25;6.18;;;3.55;;
59922;SDS011;45778;51.142;3.732;2022-10-26T02:02:53;10.50;;;3.97;;
59922;SDS011;45778;51.142;3.732;2022-10-26T02:05:59;8.25;;;3.42;;
59922;SDS011;45778;51.142;3.732;2022-10-26T02:08:34;8.43;;;3.70;;
59922;SDS011;45778;51.142;3.732;2022-10-26T02:11:18;6.88;;;3.22;;
59922;SDS011;45778;51.142;3.732;2022-10-26T02:13:52;6.63;;;3.35;;
59922;SDS011;45778;51.142;3.732;2022-10-26T02:16:53;7.55;;;3.05;;
59922;SDS011;45778;51.142;3.732;2022-10-26T02:25:31;9.48;;;2.88;;
59922;SDS011;45778;51.142;3.732;2022-10-26T02:28:01;8.48;;;2.72;;
59922;SDS011;45778;51.142;3.732;2022-10-26T02:30:31;7.57;;;2.65;;
59922;SDS011;45778;51.142;3.732;2022-10-26T02:32:59;7.57;;;2.55;;
59922;SDS011;45778;51.142;3.732;2022-10-26T02:35:28;6.35;;;2.47;;
59922;SDS011;45778;51.142;3.732;2022-10-26T02:37:56;12.30;;;3.00;;
59922;SDS011;45778;51.142;3.732;2022-10-26T02:40:26;7.38;;;2.58;;
59922;SDS011;45778;51.142;3.732;2022-10-26T02:42:53;10.23;;;2.90;;
59922;SDS011;45778;51.142;3.732;2022-10-26T02:45:23;8.43;;;2.45;;
59922;SDS011;45778;51.142;3.732;2022-10-26T02:47:52;8.63;;;2.90;;
59922;SDS011;45778;51.142;3.732;2022-10-26T02:50:20;6.07;;;2.63;;
59922;SDS011;45778;51.142;3.732;2022-10-26T02:55:48;9.95;;;3.03;;
59922;SDS011;45778;51.142;3.732;2022-10-26T02:58:17;7.88;;;3.05;;
59922;SDS011;45778;51.142;3.732;2022-10-26T03:00:46;7.82;;;3.00;;
59922;SDS011;45778;51.142;3.732;2022-10-26T03:03:13;7.45;;;2.72;;
59922;SDS011;45778;51.142;3.732;2022-10-26T03:05:40;5.75;;;2.92;;
59922;SDS011;45778;51.142;3.732;2022-10-26T03:08:07;6.78;;;2.90;;
59922;SDS011;45778;51.142;3.732;2022-10-26T03:10:34;10.27;;;2.95;;
59922;SDS011;45778;51.142;3.732;2022-10-26T03:13:10;9.27;;;2.90;;
59922;SDS011;45778;51.142;3.732;2022-10-26T03:15:37;6.20;;;2.92;;
59922;SDS011;45778;51.142;3.732;2022-10-26T03:18:03;8.30;;;2.95;;
59922;SDS011;45778;51.142;3.732;2022-10-26T03:20:29;5.93;;;2.63;;
59922;SDS011;45778;51.142;3.732;2022-10-26T03:22:56;12.85;;;3.20;;
59922;SDS011;45778;51.142;3.732;2022-10-26T03:25:24;6.40;;;2.97;;
59922;SDS011;45778;51.142;3.732;2022-10-26T03:27:57;8.07;;;3.33;;
59922;SDS011;45778;51.142;3.732;2022-10-26T03:30:23;6.93;;;2.80;;
59922;SDS011;45778;51.142;3.732;2022-10-26T03:32:50;10.88;;;2.80;;
59922;SDS011;45778;51.142;3.732;2022-10-26T03:35:15;6.85;;;2.75;;
59922;SDS011;45778;51.142;3.732;2022-10-26T03:37:41;11.18;;;3.10;;
59922;SDS011;45778;51.142;3.732;2022-10-26T03:40:07;6.63;;;2.50;;
59922;SDS011;45778;51.142;3.732;2022-10-26T03:42:36;8.98;;;2.58;;
59922;SDS011;45778;51.142;3.732;2022-10-26T03:45:03;8.02;;;3.08;;
59922;SDS011;45778;51.142;3.732;2022-10-26T03:47:30;7.60;;;3.10;;
59922;SDS011;45778;51.142;3.732;2022-10-26T03:49:55;8.82;;;2.88;;
59922;SDS011;45778;51.142;3.732;2022-10-26T03:52:21;9.38;;;3.22;;
59922;SDS011;45778;51.142;3.732;2022-10-26T03:54:48;7.20;;;3.22;;
59922;SDS011;45778;51.142;3.732;2022-10-26T03:57:13;10.80;;;3.20;;
59922;SDS011;45778;51.142;3.732;2022-10-26T03:59:39;11.85;;;3.55;;
59922;SDS011;45778;51.142;3.732;2022-10-26T04:02:05;8.32;;;3.53;;
59922;SDS011;45778;51.142;3.732;2022-10-26T04:04:31;10.30;;;3.85;;
59922;SDS011;45778;51.142;3.732;2022-10-26T04:06:56;10.05;;;3.55;;
59922;SDS011;45778;51.142;3.732;2022-10-26T04:09:22;13.15;;;3.80;;
59922;SDS011;45778;51.142;3.732;2022-10-26T04:11:48;10.60;;;4.25;;
59922;SDS011;45778;51.142;3.732;2022-10-26T04:14:13;12.40;;;4.10;;
59922;SDS011;45778;51.142;3.732;2022-10-26T04:16:39;8.43;;;3.95;;
59922;SDS011;45778;51.142;3.732;2022-10-26T04:19:05;10.18;;;3.30;;
59922;SDS011;45778;51.142;3.732;2022-10-26T04:21:30;8.38;;;2.95;;
59922;SDS011;45778;51.142;3.732;2022-10-26T04:23:59;9.68;;;3.03;;
59922;SDS011;45778;51.142;3.732;2022-10-26T04:26:25;9.52;;;2.90;;
59922;SDS011;45778;51.142;3.732;2022-10-26T04:28:51;5.88;;;2.60;;
59922;SDS011;45778;51.142;3.732;2022-10-26T04:31:17;9.00;;;2.60;;
59922;SDS011;45778;51.142;3.732;2022-10-26T04:33:43;4.82;;;2.40;;
59922;SDS011;45778;51.142;3.732;2022-10-26T04:36:08;6.85;;;2.58;;
59922;SDS011;45778;51.142;3.732;2022-10-26T04:38:34;6.78;;;2.45;;
59922;SDS011;45778;51.142;3.732;2022-10-26T04:41:00;7.25;;;2.17;;
59922;SDS011;45778;51.142;3.732;2022-10-26T04:43:26;6.07;;;2.20;;
59922;SDS011;45778;51.142;3.732;2022-10-26T04:45:55;8.18;;;1.80;;
59922;SDS011;45778;51.142;3.732;2022-10-26T04:48:21;5.32;;;1.85;;
59922;SDS011;45778;51.142;3.732;2022-10-26T04:50:47;6.10;;;2.08;;
59922;SDS011;45778;51.142;3.732;2022-10-26T04:53:13;5.78;;;1.80;;
59922;SDS011;45778;51.142;3.732;2022-10-26T04:55:39;5.82;;;2.30;;
59922;SDS011;45778;51.142;3.732;2022-10-26T04:58:04;9.65;;;2.40;;
59922;SDS011;45778;51.142;3.732;2022-10-26T05:00:30;5.93;;;2.08;;
59922;SDS011;45778;51.142;3.732;2022-10-26T05:03:00;6.22;;;1.65;;
59922;SDS011;45778;51.142;3.732;2022-10-26T05:05:26;7.10;;;1.90;;
59922;SDS011;45778;51.142;3.732;2022-10-26T05:07:53;4.68;;;1.88;;
59922;SDS011;45778;51.142;3.732;2022-10-26T05:10:20;4.55;;;1.48;;
59922;SDS011;45778;51.142;3.732;2022-10-26T05:12:52;7.25;;;1.60;;
59922;SDS011;45778;51.142;3.732;2022-10-26T05:15:18;8.90;;;1.80;;
59922;SDS011;45778;51.142;3.732;2022-10-26T05:17:44;7.82;;;1.60;;
59922;SDS011;45778;51.142;3.732;2022-10-26T05:20:10;7.90;;;1.48;;
59922;SDS011;45778;51.142;3.732;2022-10-26T05:22:38;6.90;;;1.42;;
59922;SDS011;45778;51.142;3.732;2022-10-26T05:25:04;5.35;;;1.48;;
59922;SDS011;45778;51.142;3.732;2022-10-26T05:27:30;5.10;;;1.38;;
59922;SDS011;45778;51.142;3.732;2022-10-26T05:29:56;6.28;;;1.35;;
59922;SDS011;45778;51.142;3.732;2022-10-26T05:32:21;4.53;;;1.48;;
59922;SDS011;45778;51.142;3.732;2022-10-26T05:34:47;8.25;;;2.47;;
59922;SDS011;45778;51.142;3.732;2022-10-26T05:37:13;6.18;;;1.75;;
59922;SDS011;45778;51.142;3.732;2022-10-26T05:39:38;9.70;;;2.20;;
59922;SDS011;45778;51.142;3.732;2022-10-26T05:42:04;7.72;;;1.77;;
59922;SDS011;45778;51.142;3.732;2022-10-26T05:44:30;5.15;;;1.65;;
59922;SDS011;45778;51.142;3.732;2022-10-26T05:46:56;8.73;;;1.83;;
59922;SDS011;45778;51.142;3.732;2022-10-26T05:49:21;3.33;;;1.55;;
59922;SDS011;45778;51.142;3.732;2022-10-26T05:51:47;5.95;;;1.83;;
59922;SDS011;45778;51.142;3.732;2022-10-26T05:54:13;10.23;;;2.00;;
59922;SDS011;45778;51.142;3.732;2022-10-26T05:56:38;5.97;;;1.88;;
59922;SDS011;45778;51.142;3.732;2022-10-26T05:59:12;5.32;;;1.45;;
59922;SDS011;45778;51.142;3.732;2022-10-26T06:01:49;6.47;;;1.45;;
59922;SDS011;45778;51.142;3.732;2022-10-26T06:04:36;6.07;;;1.65;;
59922;SDS011;45778;51.142;3.732;2022-10-26T06:07:11;7.18;;;1.52;;
59922;SDS011;45778;51.142;3.732;2022-10-26T06:09:41;5.55;;;1.90;;
59922;SDS011;45778;51.142;3.732;2022-10-26T06:12:08;8.70;;;1.77;;
59922;SDS011;45778;51.142;3.732;2022-10-26T06:14:35;10.13;;;2.53;;
59922;SDS011;45778;51.142;3.732;2022-10-26T06:22:52;6.53;;;2.50;;
59922;SDS011;45778;51.142;3.732;2022-10-26T06:25:39;7.78;;;2.03;;
59922;SDS011;45778;51.142;3.732;2022-10-26T06:28:26;12.20;;;3.08;;
59922;SDS011;45778;51.142;3.732;2022-10-26T06:31:00;7.07;;;1.92;;
59922;SDS011;45778;51.142;3.732;2022-10-26T06:33:26;4.25;;;1.67;;
59922;SDS011;45778;51.142;3.732;2022-10-26T06:38:31;4.78;;;2.03;;
59922;SDS011;45778;51.142;3.732;2022-10-26T06:40:59;5.25;;;1.88;;
59922;SDS011;45778;51.142;3.732;2022-10-26T06:43:26;5.60;;;1.70;;
59922;SDS011;45778;51.142;3.732;2022-10-26T06:48:48;5.28;;;1.77;;
59922;SDS011;45778;51.142;3.732;2022-10-26T06:51:32;11.15;;;1.65;;
59922;SDS011;45778;51.142;3.732;2022-10-26T06:54:13;5.22;;;2.03;;
59922;SDS011;45778;51.142;3.732;2022-10-26T06:57:17;6.35;;;1.67;;
59922;SDS011;45778;51.142;3.732;2022-10-26T06:59:46;5.53;;;2.47;;
59922;SDS011;45778;51.142;3.732;2022-10-26T07:02:13;3.03;;;1.52;;
59922;SDS011;45778;51.142;3.732;2022-10-26T07:04:40;10.30;;;1.70;;
59922;SDS011;45778;51.142;3.732;2022-10-26T07:07:07;7.03;;;2.00;;
59922;SDS011;45778;51.142;3.732;2022-10-26T07:09:37;7.10;;;2.10;;
59922;SDS011;45778;51.142;3.732;2022-10-26T07:12:03;4.38;;;1.42;;
59922;SDS011;45778;51.142;3.732;2022-10-26T07:14:29;6.03;;;1.90;;
59922;SDS011;45778;51.142;3.732;2022-10-26T07:16:54;4.25;;;1.83;;
59922;SDS011;45778;51.142;3.732;2022-10-26T07:19:21;5.45;;;2.05;;
59922;SDS011;45778;51.142;3.732;2022-10-26T07:21:47;5.80;;;1.48;;
59922;SDS011;45778;51.142;3.732;2022-10-26T07:24:12;6.75;;;1.58;;
59922;SDS011;45778;51.142;3.732;2022-10-26T07:26:38;5.32;;;1.90;;
59922;SDS011;45778;51.142;3.732;2022-10-26T07:29:04;10.95;;;2.10;;
59922;SDS011;45778;51.142;3.732;2022-10-26T07:31:29;6.45;;;1.83;;
59922;SDS011;45778;51.142;3.732;2022-10-26T07:33:55;6.35;;;1.70;;
59922;SDS011;45778;51.142;3.732;2022-10-26T07:36:21;5.60;;;2.10;;
59922;SDS011;45778;51.142;3.732;2022-10-26T07:38:49;9.13;;;1.80;;
59922;SDS011;45778;51.142;3.732;2022-10-26T07:41:16;4.20;;;2.03;;
59922;SDS011;45778;51.142;3.732;2022-10-26T07:43:41;6.75;;;2.30;;
59922;SDS011;45778;51.142;3.732;2022-10-26T07:46:09;7.38;;;2.00;;
59922;SDS011;45778;51.142;3.732;2022-10-26T07:48:35;4.47;;;1.50;;
59922;SDS011;45778;51.142;3.732;2022-10-26T07:51:00;7.43;;;1.80;;
59922;SDS011;45778;51.142;3.732;2022-10-26T07:53:26;6.85;;;1.65;;
59922;SDS011;45778;51.142;3.732;2022-10-26T07:55:55;6.47;;;2.03;;
59922;SDS011;45778;51.142;3.732;2022-10-26T07:58:22;8.25;;;2.00;;
59922;SDS011;45778;51.142;3.732;2022-10-26T08:00:50;6.40;;;1.90;;
59922;SDS011;45778;51.142;3.732;2022-10-26T08:03:17;6.43;;;1.63;;
59922;SDS011;45778;51.142;3.732;2022-10-26T08:05:49;5.95;;;1.77;;
59922;SDS011;45778;51.142;3.732;2022-10-26T08:08:17;7.90;;;1.80;;
59922;SDS011;45778;51.142;3.732;2022-10-26T08:10:44;5.70;;;1.85;;
59922;SDS011;45778;51.142;3.732;2022-10-26T08:13:11;11.07;;;2.03;;
59922;SDS011;45778;51.142;3.732;2022-10-26T08:15:37;4.47;;;1.67;;
59922;SDS011;45778;51.142;3.732;2022-10-26T08:18:03;6.82;;;1.90;;
59922;SDS011;45778;51.142;3.732;2022-10-26T08:20:29;5.32;;;1.55;;
59922;SDS011;45778;51.142;3.732;2022-10-26T08:22:55;12.35;;;2.00;;
59922;SDS011;45778;51.142;3.732;2022-10-26T08:25:21;7.07;;;1.88;;
59922;SDS011;45778;51.142;3.732;2022-10-26T08:27:47;7.85;;;2.22;;
59922;SDS011;45778;51.142;3.732;2022-10-26T08:30:13;3.00;;;1.33;;
59922;SDS011;45778;51.142;3.732;2022-10-26T08:32:39;5.82;;;1.77;;
59922;SDS011;45778;51.142;3.732;2022-10-26T08:35:06;6.10;;;1.77;;
59922;SDS011;45778;51.142;3.732;2022-10-26T08:37:32;8.90;;;1.90;;
59922;SDS011;45778;51.142;3.732;2022-10-26T08:39:58;6.05;;;1.77;;
59922;SDS011;45778;51.142;3.732;2022-10-26T08:42:27;4.13;;;1.60;;
59922;SDS011;45778;51.142;3.732;2022-10-26T08:45:02;9.43;;;2.03;;
59922;SDS011;45778;51.142;3.732;2022-10-26T08:47:44;7.18;;;2.20;;
59922;SDS011;45778;51.142;3.732;2022-10-26T08:55:38;7.47;;;1.50;;
59922;SDS011;45778;51.142;3.732;2022-10-26T08:58:10;5.82;;;1.65;;
59922;SDS011;45778;51.142;3.732;2022-10-26T09:00:40;4.80;;;2.08;;
59922;SDS011;45778;51.142;3.732;2022-10-26T09:03:16;6.05;;;2.22;;
59922;SDS011;45778;51.142;3.732;2022-10-26T09:13:50;4.70;;;2.05;;
59922;SDS011;45778;51.142;3.732;2022-10-26T09:24:51;3.00;;;1.45;;
59922;SDS011;45778;51.142;3.732;2022-10-26T09:30:17;4.97;;;1.42;;
59922;SDS011;45778;51.142;3.732;2022-10-26T09:32:45;4.70;;;1.60;;
59922;SDS011;45778;51.142;3.732;2022-10-26T09:35:26;6.22;;;1.60;;
59922;SDS011;45778;51.142;3.732;2022-10-26T09:37:56;6.45;;;1.85;;
59922;SDS011;45778;51.142;3.732;2022-10-26T09:45:52;7.05;;;1.80;;
59922;SDS011;45778;51.142;3.732;2022-10-26T09:48:24;4.70;;;1.45;;
59922;SDS011;45778;51.142;3.732;2022-10-26T09:50:51;5.93;;;2.00;;
59922;SDS011;45778;51.142;3.732;2022-10-26T09:53:17;6.60;;;1.90;;
59922;SDS011;45778;51.142;3.732;2022-10-26T09:55:46;5.50;;;1.73;;
59922;SDS011;45778;51.142;3.732;2022-10-26T09:58:19;4.45;;;1.40;;
59922;SDS011;45778;51.142;3.732;2022-10-26T10:00:48;5.80;;;1.60;;
59922;SDS011;45778;51.142;3.732;2022-10-26T10:03:19;9.60;;;2.42;;
59922;SDS011;45778;51.142;3.732;2022-10-26T10:10:58;5.70;;;1.85;;
59922;SDS011;45778;51.142;3.732;2022-10-26T10:13:28;8.60;;;2.05;;
59922;SDS011;45778;51.142;3.732;2022-10-26T10:16:03;5.22;;;1.70;;
59922;SDS011;45778;51.142;3.732;2022-10-26T10:18:32;6.45;;;1.70;;
59922;SDS011;45778;51.142;3.732;2022-10-26T10:21:00;6.90;;;1.25;;
59922;SDS011;45778;51.142;3.732;2022-10-26T10:23:36;5.97;;;1.65;;
59922;SDS011;45778;51.142;3.732;2022-10-26T10:26:11;8.80;;;2.38;;
59922;SDS011;45778;51.142;3.732;2022-10-26T10:28:37;7.60;;;1.42;;
59922;SDS011;45778;51.142;3.732;2022-10-26T10:31:09;4.65;;;1.38;;
59922;SDS011;45778;51.142;3.732;2022-10-26T10:33:46;3.85;;;1.17;;
59922;SDS011;45778;51.142;3.732;2022-10-26T10:36:19;6.80;;;1.60;;
59922;SDS011;45778;51.142;3.732;2022-10-26T10:38:48;7.35;;;1.50;;
59922;SDS011;45778;51.142;3.732;2022-10-26T10:41:25;3.95;;;1.15;;
59922;SDS011;45778;51.142;3.732;2022-10-26T10:46:28;8.10;;;1.17;;
59922;SDS011;45778;51.142;3.732;2022-10-26T10:48:59;5.72;;;1.30;;
59922;SDS011;45778;51.142;3.732;2022-10-26T10:51:27;3.88;;;0.93;;
59922;SDS011;45778;51.142;3.732;2022-10-26T10:53:59;5.35;;;1.55;;
59922;SDS011;45778;51.142;3.732;2022-10-26T10:56:36;7.75;;;1.35;;
59922;SDS011;45778;51.142;3.732;2022-10-26T11:04:52;5.25;;;1.25;;
59922;SDS011;45778;51.142;3.732;2022-10-26T11:07:35;5.87;;;1.20;;
59922;SDS011;45778;51.142;3.732;2022-10-26T11:10:12;3.88;;;0.93;;
59922;SDS011;45778;51.142;3.732;2022-10-26T11:12:58;8.32;;;1.48;;
59922;SDS011;45778;51.142;3.732;2022-10-26T11:15:32;9.77;;;1.52;;
59922;SDS011;45778;51.142;3.732;2022-10-26T11:18:03;6.57;;;1.08;;
59922;SDS011;45778;51.142;3.732;2022-10-26T11:20:31;7.30;;;1.40;;
59922;SDS011;45778;51.142;3.732;2022-10-26T11:23:09;5.47;;;1.38;;
59922;SDS011;45778;51.142;3.732;2022-10-26T11:25:43;5.43;;;1.02;;
59922;SDS011;45778;51.142;3.732;2022-10-26T11:30:48;3.50;;;0.90;;
59922;SDS011;45778;51.142;3.732;2022-10-26T11:33:25;5.28;;;1.30;;
59922;SDS011;45778;51.142;3.732;2022-10-26T11:41:35;5.00;;;1.30;;
59922;SDS011;45778;51.142;3.732;2022-10-26T11:44:13;6.97;;;1.02;;
59922;SDS011;45778;51.142;3.732;2022-10-26T11:47:00;6.03;;;1.27;;
59922;SDS011;45778;51.142;3.732;2022-10-26T11:49:43;2.90;;;1.02;;
59922;SDS011;45778;51.142;3.732;2022-10-26T11:52:18;4.00;;;1.00;;
59922;SDS011;45778;51.142;3.732;2022-10-26T11:54:52;4.28;;;1.15;;
59922;SDS011;45778;51.142;3.732;2022-10-26T11:57:23;5.03;;;0.90;;
59922;SDS011;45778;51.142;3.732;2022-10-26T11:59:53;7.03;;;1.17;;
59922;SDS011;45778;51.142;3.732;2022-10-26T12:02:25;8.68;;;1.30;;
59922;SDS011;45778;51.142;3.732;2022-10-26T12:04:55;3.33;;;1.05;;
59922;SDS011;45778;51.142;3.732;2022-10-26T12:07:24;3.58;;;1.17;;
59922;SDS011;45778;51.142;3.732;2022-10-26T12:09:53;2.35;;;0.88;;
59922;SDS011;45778;51.142;3.732;2022-10-26T12:12:33;4.70;;;1.80;;
59922;SDS011;45778;51.142;3.732;2022-10-26T12:23:02;5.28;;;1.13;;
59922;SDS011;45778;51.142;3.732;2022-10-26T12:25:29;2.55;;;0.85;;
59922;SDS011;45778;51.142;3.732;2022-10-26T12:27:55;7.35;;;1.52;;
59922;SDS011;45778;51.142;3.732;2022-10-26T12:30:26;4.88;;;1.60;;
59922;SDS011;45778;51.142;3.732;2022-10-26T12:32:54;6.25;;;1.20;;
59922;SDS011;45778;51.142;3.732;2022-10-26T12:37:56;5.68;;;1.20;;
59922;SDS011;45778;51.142;3.732;2022-10-26T12:43:31;7.65;;;1.23;;
59922;SDS011;45778;51.142;3.732;2022-10-26T12:45:44;7.47;;;1.10;;
59922;SDS011;45778;51.142;3.732;2022-10-26T12:48:24;5.75;;;1.00;;
59922;SDS011;45778;51.142;3.732;2022-10-26T12:56:58;5.25;;;1.30;;
59922;SDS011;45778;51.142;3.732;2022-10-26T12:59:43;4.65;;;1.05;;
59922;SDS011;45778;51.142;3.732;2022-10-26T13:07:26;4.28;;;0.90;;
59922;SDS011;45778;51.142;3.732;2022-10-26T13:10:01;5.65;;;1.35;;
59922;SDS011;45778;51.142;3.732;2022-10-26T13:12:55;4.88;;;1.38;;
59922;SDS011;45778;51.142;3.732;2022-10-26T13:23:34;5.65;;;0.88;;
59922;SDS011;45778;51.142;3.732;2022-10-26T13:26:10;5.85;;;1.15;;
59922;SDS011;45778;51.142;3.732;2022-10-26T13:33:56;5.60;;;1.30;;
59922;SDS011;45778;51.142;3.732;2022-10-26T13:36:57;5.57;;;1.38;;
59922;SDS011;45778;51.142;3.732;2022-10-26T13:39:23;5.35;;;1.08;;
59922;SDS011;45778;51.142;3.732;2022-10-26T13:41:55;6.97;;;0.63;;
59922;SDS011;45778;51.142;3.732;2022-10-26T13:47:20;5.05;;;1.30;;
59922;SDS011;45778;51.142;3.732;2022-10-26T13:49:57;5.50;;;1.55;;
59922;SDS011;45778;51.142;3.732;2022-10-26T13:52:39;4.55;;;0.88;;
59922;SDS011;45778;51.142;3.732;2022-10-26T13:55:19;4.95;;;0.98;;
59922;SDS011;45778;51.142;3.732;2022-10-26T14:03:33;6.40;;;1.10;;
59922;SDS011;45778;51.142;3.732;2022-10-26T14:05:59;2.67;;;0.93;;
59922;SDS011;45778;51.142;3.732;2022-10-26T14:08:39;5.65;;;0.80;;
59922;SDS011;45778;51.142;3.732;2022-10-26T14:11:06;3.53;;;1.00;;
59922;SDS011;45778;51.142;3.732;2022-10-26T14:13:36;4.68;;;0.90;;
59922;SDS011;45778;51.142;3.732;2022-10-26T14:16:05;5.13;;;1.13;;
59922;SDS011;45778;51.142;3.732;2022-10-26T14:18:32;4.72;;;0.70;;
59922;SDS011;45778;51.142;3.732;2022-10-26T14:21:00;4.05;;;1.13;;
59922;SDS011;45778;51.142;3.732;2022-10-26T14:23:50;3.63;;;1.02;;
59922;SDS011;45778;51.142;3.732;2022-10-26T14:26:22;4.97;;;0.98;;
59922;SDS011;45778;51.142;3.732;2022-10-26T14:28:56;3.80;;;0.80;;
59922;SDS011;45778;51.142;3.732;2022-10-26T14:31:24;4.07;;;0.70;;
59922;SDS011;45778;51.142;3.732;2022-10-26T14:33:56;2.70;;;0.60;;
59922;SDS011;45778;51.142;3.732;2022-10-26T14:36:28;5.30;;;0.88;;
59922;SDS011;45778;51.142;3.732;2022-10-26T14:39:02;4.72;;;0.88;;
59922;SDS011;45778;51.142;3.732;2022-10-26T14:41:31;8.15;;;1.15;;
59922;SDS011;45778;51.142;3.732;2022-10-26T14:43:59;4.18;;;0.90;;
59922;SDS011;45778;51.142;3.732;2022-10-26T14:46:31;6.57;;;1.52;;
59922;SDS011;45778;51.142;3.732;2022-10-26T14:48:59;4.88;;;1.20;;
59922;SDS011;45778;51.142;3.732;2022-10-26T14:51:29;5.75;;;1.05;;
59922;SDS011;45778;51.142;3.732;2022-10-26T15:06:49;5.72;;;0.80;;
59922;SDS011;45778;51.142;3.732;2022-10-26T15:09:31;4.40;;;0.70;;
59922;SDS011;45778;51.142;3.732;2022-10-26T15:12:03;3.45;;;0.77;;
59922;SDS011;45778;51.142;3.732;2022-10-26T15:14:29;5.53;;;0.70;;
59922;SDS011;45778;51.142;3.732;2022-10-26T15:16:56;4.43;;;1.10;;
59922;SDS011;45778;51.142;3.732;2022-10-26T15:19:23;3.78;;;0.65;;
59922;SDS011;45778;51.142;3.732;2022-10-26T15:21:50;5.50;;;0.70;;
59922;SDS011;45778;51.142;3.732;2022-10-26T15:26:45;2.38;;;0.63;;
59922;SDS011;45778;51.142;3.732;2022-10-26T15:30:07;3.65;;;0.73;;
59922;SDS011;45778;51.142;3.732;2022-10-26T15:32:03;6.03;;;0.82;;
59922;SDS011;45778;51.142;3.732;2022-10-26T15:34:40;4.38;;;0.95;;
59922;SDS011;45778;51.142;3.732;2022-10-26T15:37:06;5.22;;;0.75;;
59922;SDS011;45778;51.142;3.732;2022-10-26T15:39:32;6.85;;;1.15;;
59922;SDS011;45778;51.142;3.732;2022-10-26T15:41:57;2.95;;;0.73;;
59922;SDS011;45778;51.142;3.732;2022-10-26T15:44:24;5.32;;;1.02;;
59922;SDS011;45778;51.142;3.732;2022-10-26T15:46:49;6.60;;;1.00;;
59922;SDS011;45778;51.142;3.732;2022-10-26T15:49:18;5.03;;;1.35;;
59922;SDS011;45778;51.142;3.732;2022-10-26T15:51:45;4.07;;;1.60;;
59922;SDS011;45778;51.142;3.732;2022-10-26T15:54:12;9.00;;;1.20;;
59922;SDS011;45778;51.142;3.732;2022-10-26T15:56:38;3.95;;;1.00;;
59922;SDS011;45778;51.142;3.732;2022-10-26T15:59:17;6.85;;;1.10;;
59922;SDS011;45778;51.142;3.732;2022-10-26T16:01:43;4.93;;;1.35;;
59922;SDS011;45778;51.142;3.732;2022-10-26T16:04:09;4.95;;;0.90;;
59922;SDS011;45778;51.142;3.732;2022-10-26T16:06:36;4.32;;;1.00;;
59922;SDS011;45778;51.142;3.732;2022-10-26T16:09:04;5.32;;;1.10;;
59922;SDS011;45778;51.142;3.732;2022-10-26T16:11:33;5.82;;;1.20;;
59922;SDS011;45778;51.142;3.732;2022-10-26T16:13:59;4.80;;;0.95;;
59922;SDS011;45778;51.142;3.732;2022-10-26T16:16:25;5.95;;;1.30;;
59922;SDS011;45778;51.142;3.732;2022-10-26T16:18:51;4.00;;;1.55;;
59922;SDS011;45778;51.142;3.732;2022-10-26T16:21:19;5.93;;;1.00;;
59922;SDS011;45778;51.142;3.732;2022-10-26T16:23:46;5.10;;;1.67;;
59922;SDS011;45778;51.142;3.732;2022-10-26T16:26:14;7.13;;;1.88;;
59922;SDS011;45778;51.142;3.732;2022-10-26T16:28:40;6.50;;;2.30;;
59922;SDS011;45778;51.142;3.732;2022-10-26T16:31:06;5.10;;;4.30;;
59922;SDS011;45778;51.142;3.732;2022-10-26T16:33:37;9.75;;;5.20;;
59922;SDS011;45778;51.142;3.732;2022-10-26T16:36:03;7.38;;;3.97;;
59922;SDS011;45778;51.142;3.732;2022-10-26T16:38:30;8.23;;;2.33;;
59922;SDS011;45778;51.142;3.732;2022-10-26T16:41:06;8.13;;;2.47;;
59922;SDS011;45778;51.142;3.732;2022-10-26T16:43:40;7.45;;;2.50;;
59922;SDS011;45778;51.142;3.732;2022-10-26T16:46:07;8.93;;;2.72;;
59922;SDS011;45778;51.142;3.732;2022-10-26T16:48:36;5.10;;;1.90;;
59922;SDS011;45778;51.142;3.732;2022-10-26T16:53:35;9.45;;;2.40;;
59922;SDS011;45778;51.142;3.732;2022-10-26T16:56:06;10.52;;;2.85;;
59922;SDS011;45778;51.142;3.732;2022-10-26T16:58:39;7.03;;;3.22;;
59922;SDS011;45778;51.142;3.732;2022-10-26T17:01:06;9.00;;;4.30;;
59922;SDS011;45778;51.142;3.732;2022-10-26T17:03:32;8.40;;;4.00;;
59922;SDS011;45778;51.142;3.732;2022-10-26T17:06:02;5.95;;;2.17;;
59922;SDS011;45778;51.142;3.732;2022-10-26T17:08:30;7.65;;;1.80;;
59922;SDS011;45778;51.142;3.732;2022-10-26T17:11:00;8.90;;;1.65;;
59922;SDS011;45778;51.142;3.732;2022-10-26T17:13:28;9.23;;;1.77;;
59922;SDS011;45778;51.142;3.732;2022-10-26T17:15:55;7.07;;;2.00;;
59922;SDS011;45778;51.142;3.732;2022-10-26T17:18:25;6.35;;;2.10;;
59922;SDS011;45778;51.142;3.732;2022-10-26T17:20:51;7.88;;;1.40;;
59922;SDS011;45778;51.142;3.732;2022-10-26T17:23:16;4.07;;;1.25;;
59922;SDS011;45778;51.142;3.732;2022-10-26T17:25:42;9.48;;;2.33;;
59922;SDS011;45778;51.142;3.732;2022-10-26T17:28:08;8.68;;;1.77;;
59922;SDS011;45778;51.142;3.732;2022-10-26T17:30:34;6.90;;;1.42;;
59922;SDS011;45778;51.142;3.732;2022-10-26T17:33:00;7.15;;;2.35;;